createdAt,value
2023-04-30T00:01:27.809Z,10.13
2023-04-30T00:03:54.781Z,14.30
2023-04-30T00:06:21.816Z,14.67
2023-04-30T00:08:48.740Z,12.37
2023-04-30T00:11:15.683Z,12.37
2023-04-30T00:13:44.116Z,11.13
2023-04-30T00:16:11.421Z,10.10
2023-04-30T00:18:38.751Z,11.67
2023-04-30T00:21:05.786Z,16.20
2023-04-30T00:23:32.646Z,11.57
2023-04-30T00:25:59.499Z,11.67
2023-04-30T00:28:26.486Z,11.53
2023-04-30T00:30:53.501Z,11.50
2023-04-30T00:33:20.438Z,11.60
2023-04-30T00:35:47.599Z,10.60
2023-04-30T00:38:15.543Z,15.13
2023-04-30T00:40:43.283Z,13.00
2023-04-30T00:43:10.210Z,12.53
2023-04-30T00:45:37.109Z,11.00
2023-04-30T00:48:04.265Z,13.67
2023-04-30T00:50:31.245Z,12.63
2023-04-30T00:52:59.622Z,13.17
2023-04-30T00:55:26.896Z,10.60
2023-04-30T00:57:54.318Z,12.33
2023-04-30T01:00:21.749Z,13.43
2023-04-30T01:02:48.735Z,11.77
2023-04-30T01:05:16.032Z,15.20
2023-04-30T01:07:45.375Z,15.67
2023-04-30T01:10:13.917Z,15.70
2023-04-30T01:13:14.777Z,13.97
2023-04-30T01:16:06.906Z,15.27
2023-04-30T01:18:57.386Z,15.07
2023-04-30T01:21:24.539Z,19.60
2023-04-30T01:24:16.066Z,13.73
2023-04-30T01:27:00.731Z,15.73
2023-04-30T01:29:27.848Z,19.77
2023-04-30T01:31:54.750Z,16.30
2023-04-30T01:34:21.674Z,12.17
2023-04-30T01:37:28.344Z,16.47
2023-04-30T01:40:00.964Z,15.70
2023-04-30T01:42:33.715Z,15.27
2023-04-30T01:45:36.941Z,14.80
2023-04-30T01:48:20.048Z,15.00
2023-04-30T01:51:19.996Z,16.17
2023-04-30T01:53:47.244Z,18.23
2023-04-30T01:56:21.949Z,16.60
2023-04-30T01:58:49.716Z,15.17
2023-04-30T02:01:32.616Z,21.60
2023-04-30T02:04:00.977Z,18.90
2023-04-30T02:06:31.399Z,19.23
2023-04-30T02:09:07.158Z,19.63
2023-04-30T02:11:34.072Z,18.90
2023-04-30T02:14:00.999Z,17.37
2023-04-30T02:16:27.932Z,20.47
2023-04-30T02:18:54.779Z,18.80
2023-04-30T02:21:21.677Z,20.10
2023-04-30T02:23:48.734Z,21.57
2023-04-30T02:26:15.673Z,19.53
2023-04-30T02:28:42.601Z,21.50
2023-04-30T02:31:09.693Z,23.80
2023-04-30T02:33:37.546Z,22.17
2023-04-30T02:36:04.683Z,22.23
2023-04-30T02:38:31.571Z,21.47
2023-04-30T02:40:58.419Z,18.17
2023-04-30T02:43:25.309Z,19.27
2023-04-30T02:45:52.264Z,20.83
2023-04-30T02:48:19.328Z,23.70
2023-04-30T02:50:46.287Z,21.13
2023-04-30T02:53:13.135Z,23.50
2023-04-30T02:55:40.063Z,24.83
2023-04-30T02:58:06.973Z,23.30
2023-04-30T03:00:34.070Z,22.47
2023-04-30T03:03:01.219Z,28.17
2023-04-30T03:05:28.846Z,28.20
2023-04-30T03:07:56.063Z,25.57
2023-04-30T03:10:22.946Z,23.73
2023-04-30T03:12:49.804Z,26.50
2023-04-30T03:15:16.761Z,24.03
2023-04-30T03:17:45.889Z,25.10
2023-04-30T03:20:14.019Z,26.10
2023-04-30T03:22:41.683Z,28.20
2023-04-30T03:25:09.273Z,29.10
2023-04-30T03:27:36.289Z,26.40
2023-04-30T03:30:03.184Z,27.77
2023-04-30T03:32:30.056Z,31.60
2023-04-30T03:34:57.241Z,32.40
2023-04-30T03:37:24.146Z,29.83
2023-04-30T03:39:51.056Z,30.83
2023-04-30T03:42:17.909Z,31.37
2023-04-30T03:44:44.916Z,31.87
2023-04-30T03:47:11.819Z,34.60
2023-04-30T03:49:39.072Z,28.40
2023-04-30T03:52:07.217Z,31.67
2023-04-30T03:54:34.138Z,33.77
2023-04-30T03:57:03.792Z,32.57
2023-04-30T03:59:32.015Z,32.57
2023-04-30T04:02:00.131Z,30.80
2023-04-30T04:04:27.212Z,32.90
2023-04-30T04:06:54.140Z,32.07
2023-04-30T04:09:21.025Z,34.53
2023-04-30T04:11:48.117Z,32.73
2023-04-30T04:14:15.054Z,31.13
2023-04-30T04:16:42.398Z,34.90
2023-04-30T04:19:09.474Z,33.90
2023-04-30T04:21:37.088Z,34.87
2023-04-30T04:24:08.432Z,33.05
2023-04-30T04:26:36.449Z,32.70
2023-04-30T04:29:04.592Z,38.80
2023-04-30T04:31:32.113Z,37.53
2023-04-30T04:34:00.336Z,34.07
2023-04-30T04:36:27.779Z,34.50
2023-04-30T04:38:55.866Z,32.03
2023-04-30T04:41:23.427Z,34.97
2023-04-30T04:43:50.677Z,34.33
2023-04-30T04:46:18.179Z,37.53
2023-04-30T04:48:45.090Z,32.40
2023-04-30T04:51:11.975Z,33.07
2023-04-30T04:53:41.285Z,32.60
2023-04-30T04:56:09.069Z,33.17
2023-04-30T04:58:36.146Z,28.20
2023-04-30T05:01:05.115Z,29.80
2023-04-30T05:03:32.643Z,34.87
2023-04-30T05:06:01.367Z,33.40
2023-04-30T05:08:28.236Z,32.10
2023-04-30T05:10:55.269Z,32.20
2023-04-30T05:13:22.186Z,31.80
2023-04-30T05:15:52.561Z,30.77
2023-04-30T05:18:20.245Z,36.80
2023-04-30T05:20:47.095Z,32.93
2023-04-30T05:23:13.924Z,32.77
2023-04-30T05:25:40.763Z,36.30
2023-04-30T05:28:07.913Z,31.57
2023-04-30T05:30:34.772Z,35.50
2023-04-30T05:33:01.642Z,34.93
2023-04-30T05:35:28.592Z,32.53
2023-04-30T05:37:55.586Z,36.97
2023-04-30T05:40:22.482Z,34.20
2023-04-30T05:42:49.346Z,35.47
2023-04-30T05:45:17.585Z,31.77
2023-04-30T05:47:44.591Z,30.20
2023-04-30T05:50:11.718Z,31.10
2023-04-30T05:52:38.736Z,31.90
2023-04-30T05:55:06.509Z,31.80
2023-04-30T05:57:33.415Z,36.33
2023-04-30T06:00:00.250Z,33.93
2023-04-30T06:02:27.145Z,30.27
2023-04-30T06:04:54.493Z,31.50
2023-04-30T06:07:21.330Z,32.60
2023-04-30T06:09:48.177Z,24.67
2023-04-30T06:12:15.087Z,30.50
2023-04-30T06:14:45.405Z,27.67
2023-04-30T06:17:13.434Z,27.33
2023-04-30T06:19:40.505Z,32.73
2023-04-30T06:22:07.454Z,30.53
2023-04-30T06:24:34.306Z,25.97
2023-04-30T06:27:01.551Z,30.03
2023-04-30T06:29:28.629Z,28.40
2023-04-30T06:31:55.986Z,27.43
2023-04-30T06:34:22.984Z,23.67
2023-04-30T06:36:50.121Z,26.47
2023-04-30T06:39:17.177Z,30.70
2023-04-30T06:41:44.184Z,26.10
2023-04-30T06:44:13.028Z,29.27
2023-04-30T06:46:40.412Z,28.03
2023-04-30T06:49:07.495Z,27.60
2023-04-30T06:51:34.418Z,24.30
2023-04-30T06:54:01.334Z,25.67
2023-04-30T06:56:28.439Z,28.63
2023-04-30T06:58:55.451Z,28.20
2023-04-30T07:01:22.388Z,29.13
2023-04-30T07:03:49.592Z,30.13
2023-04-30T07:06:16.668Z,30.17
2023-04-30T07:08:44.045Z,28.07
2023-04-30T07:11:11.339Z,28.87
2023-04-30T07:13:38.672Z,28.90
2023-04-30T07:16:06.374Z,24.93
2023-04-30T07:18:33.289Z,22.87
2023-04-30T07:21:00.157Z,21.90
2023-04-30T07:23:28.508Z,24.07
2023-04-30T07:25:57.532Z,26.63
2023-04-30T07:28:24.424Z,27.00
2023-04-30T07:30:51.434Z,24.53
2023-04-30T07:33:18.378Z,27.30
2023-04-30T07:35:45.457Z,29.03
2023-04-30T07:38:12.387Z,25.17
2023-04-30T07:40:39.260Z,24.43
2023-04-30T07:43:06.480Z,21.70
2023-04-30T07:45:35.040Z,23.20
2023-04-30T07:48:02.217Z,23.77
2023-04-30T07:50:33.722Z,29.47
2023-04-30T07:53:01.756Z,23.10
2023-04-30T07:55:28.727Z,23.53
2023-04-30T07:57:55.663Z,25.08
2023-04-30T08:00:22.842Z,22.48
2023-04-30T08:02:50.930Z,24.63
2023-04-30T08:05:18.067Z,26.20
2023-04-30T08:07:45.026Z,19.25
2023-04-30T08:10:12.671Z,24.42
2023-04-30T08:12:39.639Z,24.30
2023-04-30T08:15:07.703Z,21.77
2023-04-30T08:17:34.828Z,26.00
2023-04-30T08:20:03.129Z,25.63
2023-04-30T08:22:30.153Z,22.88
2023-04-30T08:24:57.136Z,23.65
2023-04-30T08:27:24.052Z,24.33
2023-04-30T08:29:50.941Z,24.63
2023-04-30T08:32:19.498Z,24.33
2023-04-30T08:34:46.563Z,20.27
2023-04-30T08:37:13.465Z,22.77
2023-04-30T08:39:40.586Z,22.17
2023-04-30T08:42:09.146Z,22.52
2023-04-30T08:44:39.796Z,19.05
2023-04-30T08:47:07.347Z,18.73
2023-04-30T08:49:34.191Z,22.08
2023-04-30T08:52:01.280Z,20.27
2023-04-30T08:54:29.306Z,19.25
2023-04-30T08:56:56.700Z,21.13
2023-04-30T08:59:23.617Z,20.45
2023-04-30T09:01:53.479Z,22.83
2023-04-30T09:04:20.970Z,19.83
2023-04-30T09:06:47.927Z,19.20
2023-04-30T09:09:16.153Z,24.38
2023-04-30T09:11:43.246Z,22.38
2023-04-30T09:14:10.432Z,21.48
2023-04-30T09:16:48.157Z,20.60
2023-04-30T09:19:25.391Z,20.15
2023-04-30T09:21:52.542Z,25.38
2023-04-30T09:24:21.418Z,25.52
2023-04-30T09:26:54.104Z,24.08
2023-04-30T09:29:23.122Z,22.52
2023-04-30T09:31:50.229Z,26.15
2023-04-30T09:34:17.230Z,23.10
2023-04-30T09:36:56.999Z,21.42
2023-04-30T09:39:24.981Z,19.08
2023-04-30T09:41:54.590Z,24.48
2023-04-30T09:44:28.530Z,22.17
2023-04-30T09:46:57.772Z,22.40
2023-04-30T09:49:24.908Z,27.10
2023-04-30T09:51:58.838Z,23.42
2023-04-30T09:54:29.835Z,25.55
2023-04-30T09:57:01.898Z,21.92
2023-04-30T09:59:35.214Z,22.45
2023-04-30T10:02:03.981Z,25.15
2023-04-30T10:04:32.598Z,24.05
2023-04-30T10:06:59.854Z,25.05
2023-04-30T10:09:32.877Z,22.70
2023-04-30T10:11:59.695Z,27.80
2023-04-30T10:14:26.733Z,26.42
2023-04-30T10:17:22.308Z,27.50
2023-04-30T10:19:49.839Z,25.05
2023-04-30T10:22:16.745Z,32.72
2023-04-30T10:24:44.891Z,24.90
2023-04-30T10:27:12.038Z,24.05
2023-04-30T10:29:39.005Z,24.95
2023-04-30T10:32:06.359Z,23.92
2023-04-30T10:34:42.629Z,24.30
2023-04-30T10:37:28.072Z,25.63
2023-04-30T10:39:55.796Z,25.35
2023-04-30T10:42:22.843Z,30.73
2023-04-30T10:44:49.873Z,26.40
2023-04-30T10:47:17.182Z,29.33
2023-04-30T10:49:50.450Z,27.35
2023-04-30T10:52:27.667Z,24.83
2023-04-30T10:54:54.736Z,21.83
2023-04-30T10:57:21.891Z,26.38
2023-04-30T10:59:53.758Z,26.75
2023-04-30T11:02:21.534Z,29.08
2023-04-30T11:05:07.563Z,27.15
2023-04-30T11:07:34.735Z,27.83
2023-04-30T11:10:03.912Z,20.17
2023-04-30T11:12:31.777Z,20.98
2023-04-30T11:15:02.085Z,19.58
2023-04-30T11:17:30.106Z,19.40
2023-04-30T11:20:00.772Z,17.55
2023-04-30T11:22:30.203Z,15.75
2023-04-30T11:24:59.857Z,13.52
2023-04-30T11:27:30.671Z,14.48
2023-04-30T11:29:58.305Z,14.80
2023-04-30T11:32:27.175Z,14.07
2023-04-30T11:34:55.359Z,14.75
2023-04-30T11:37:32.597Z,12.80
2023-04-30T11:40:04.677Z,14.57
2023-04-30T11:42:34.667Z,17.45
2023-04-30T11:45:09.170Z,20.20
2023-04-30T11:47:46.917Z,12.65
2023-04-30T11:50:15.356Z,15.73
2023-04-30T11:52:42.791Z,14.23
2023-04-30T11:55:16.935Z,12.65
2023-04-30T11:57:44.707Z,16.42
2023-04-30T12:00:15.904Z,12.98
2023-04-30T12:02:43.776Z,13.35
2023-04-30T12:05:20.217Z,13.07
2023-04-30T12:07:51.891Z,12.13
2023-04-30T12:10:22.295Z,9.20
2023-04-30T12:12:51.937Z,12.02
2023-04-30T12:15:23.428Z,6.47
2023-04-30T12:17:50.489Z,6.00
2023-04-30T12:20:18.706Z,8.77
2023-04-30T12:22:45.757Z,18.35
2023-04-30T12:25:14.491Z,22.70
2023-04-30T12:27:42.467Z,23.38
2023-04-30T12:30:09.969Z,22.88
2023-04-30T12:32:41.428Z,23.10
2023-04-30T12:35:09.197Z,25.27
2023-04-30T12:37:36.427Z,22.08
2023-04-30T12:40:03.423Z,22.27
2023-04-30T12:42:34.357Z,21.33
2023-04-30T12:45:01.388Z,19.83
2023-04-30T12:47:29.297Z,20.52
2023-04-30T12:49:56.782Z,15.65
2023-04-30T12:52:25.534Z,16.30
2023-04-30T12:54:52.557Z,17.58
2023-04-30T12:57:19.639Z,18.95
2023-04-30T12:59:52.939Z,18.65
2023-04-30T13:02:23.769Z,17.40
2023-04-30T13:04:51.189Z,17.58
2023-04-30T13:07:18.154Z,19.80
2023-04-30T13:09:45.082Z,18.52
2023-04-30T13:12:12.173Z,19.55
2023-04-30T13:14:39.038Z,21.33
2023-04-30T13:17:07.365Z,16.73
2023-04-30T13:19:35.294Z,18.20
2023-04-30T13:22:02.294Z,20.40
2023-04-30T13:24:31.141Z,21.45
2023-04-30T13:26:59.876Z,20.83
2023-04-30T13:29:26.872Z,21.58
2023-04-30T13:31:53.931Z,25.42
2023-04-30T13:34:21.238Z,22.27
2023-04-30T13:36:48.729Z,21.58
2023-04-30T13:39:15.814Z,19.30
2023-04-30T13:41:42.749Z,18.08
2023-04-30T13:44:10.065Z,17.90
2023-04-30T13:46:37.288Z,18.58
2023-04-30T13:49:04.432Z,18.55
2023-04-30T13:51:31.550Z,17.95
2023-04-30T13:53:58.509Z,19.27
2023-04-30T13:56:25.662Z,16.25
2023-04-30T13:58:52.538Z,14.18
2023-04-30T14:01:19.479Z,18.98
2023-04-30T14:03:47.783Z,16.67
2023-04-30T14:06:15.051Z,12.80
2023-04-30T14:08:43.073Z,16.02
2023-04-30T14:11:10.095Z,15.32
2023-04-30T14:13:36.939Z,17.52
2023-04-30T14:16:05.267Z,16.25
2023-04-30T14:18:32.624Z,13.88
2023-04-30T14:20:59.450Z,16.65
2023-04-30T14:23:26.354Z,15.43
2023-04-30T14:25:54.209Z,13.85
2023-04-30T14:28:21.105Z,16.42
2023-04-30T14:30:48.097Z,11.07
2023-04-30T14:33:15.123Z,13.48
2023-04-30T14:35:42.239Z,16.83
2023-04-30T14:38:09.159Z,17.20
2023-04-30T14:40:36.053Z,16.48
2023-04-30T14:43:02.940Z,18.98
2023-04-30T14:45:32.701Z,20.05
2023-04-30T14:47:59.756Z,15.07
2023-04-30T14:50:26.670Z,20.30
2023-04-30T14:52:53.521Z,17.75
2023-04-30T14:55:20.552Z,19.60
2023-04-30T14:57:47.401Z,16.42
2023-04-30T15:00:15.779Z,14.60
2023-04-30T15:02:42.779Z,14.15
2023-04-30T15:05:10.980Z,25.63
2023-04-30T15:07:37.845Z,16.40
2023-04-30T15:10:06.661Z,15.93
2023-04-30T15:12:34.526Z,21.23
2023-04-30T15:15:02.217Z,18.30
2023-04-30T15:17:29.453Z,17.05
2023-04-30T15:19:56.789Z,15.82
2023-04-30T15:22:24.176Z,16.08
2023-04-30T15:24:51.066Z,14.73
2023-04-30T15:27:18.549Z,16.92
2023-04-30T15:29:46.578Z,16.65
2023-04-30T15:32:17.220Z,16.75
2023-04-30T15:34:46.254Z,19.08
2023-04-30T15:37:13.110Z,16.05
2023-04-30T15:39:40.009Z,16.88
2023-04-30T15:42:06.950Z,21.75
2023-04-30T15:44:33.851Z,23.60
2023-04-30T15:47:02.117Z,18.48
2023-04-30T15:49:29.087Z,21.13
2023-04-30T15:51:55.960Z,21.58
2023-04-30T15:54:23.577Z,21.75
2023-04-30T15:56:51.555Z,24.65
2023-04-30T15:59:19.659Z,29.67
2023-04-30T16:01:46.898Z,25.90
2023-04-30T16:04:13.877Z,24.38
2023-04-30T16:06:40.836Z,25.88
2023-04-30T16:09:08.885Z,23.80
2023-04-30T16:11:36.187Z,23.02
2023-04-30T16:14:04.150Z,22.02
2023-04-30T16:16:31.054Z,25.52
2023-04-30T16:18:57.933Z,26.00
2023-04-30T16:21:24.888Z,21.52
2023-04-30T16:23:52.681Z,23.80
2023-04-30T16:26:19.655Z,22.70
2023-04-30T16:28:47.437Z,20.50
2023-04-30T16:31:15.677Z,23.58
2023-04-30T16:33:43.126Z,16.50
2023-04-30T16:36:11.122Z,18.00
2023-04-30T16:38:38.088Z,19.67
2023-04-30T16:41:05.047Z,23.60
2023-04-30T16:43:31.966Z,19.27
2023-04-30T16:45:58.884Z,18.25
2023-04-30T16:48:26.153Z,15.90
2023-04-30T16:50:53.027Z,15.20
2023-04-30T16:53:20.660Z,17.88
2023-04-30T16:55:47.604Z,13.98
2023-04-30T16:58:14.484Z,17.23
2023-04-30T17:00:41.336Z,19.10
2023-04-30T17:03:08.582Z,13.55
2023-04-30T17:05:35.674Z,17.65
2023-04-30T17:08:02.896Z,16.20
2023-04-30T17:10:32.506Z,12.43
2023-04-30T17:13:04.057Z,15.05
2023-04-30T17:15:31.212Z,14.68
2023-04-30T17:17:58.220Z,12.40
2023-04-30T17:20:25.172Z,15.48
2023-04-30T17:22:53.373Z,13.45
2023-04-30T17:25:20.345Z,15.55
2023-04-30T17:27:47.400Z,15.13
2023-04-30T17:30:15.111Z,11.50
2023-04-30T17:32:43.529Z,18.20
2023-04-30T17:35:10.959Z,17.80
2023-04-30T17:37:37.858Z,13.40
2023-04-30T17:40:05.535Z,10.65
2023-04-30T17:42:34.115Z,15.32
2023-04-30T17:45:00.950Z,10.70
2023-04-30T17:47:27.917Z,11.68
2023-04-30T17:49:55.174Z,14.02
2023-04-30T17:52:22.326Z,14.95
2023-04-30T17:54:49.208Z,13.85
2023-04-30T17:57:17.394Z,12.98
2023-04-30T17:59:45.289Z,12.18
2023-04-30T18:02:12.151Z,19.50
2023-04-30T18:04:39.068Z,16.10
2023-04-30T18:07:06.273Z,17.83
2023-04-30T18:09:33.196Z,15.45
2023-04-30T18:12:00.271Z,14.82
2023-04-30T18:14:27.401Z,12.87
2023-04-30T18:16:54.640Z,17.05
2023-04-30T18:19:21.712Z,15.77
2023-04-30T18:21:48.572Z,17.03
2023-04-30T18:24:15.513Z,14.37
2023-04-30T18:26:42.438Z,23.17
2023-04-30T18:29:09.478Z,13.83
2023-04-30T18:31:37.448Z,14.70
2023-04-30T18:34:04.789Z,15.30
2023-04-30T18:36:31.662Z,20.67
2023-04-30T18:38:58.591Z,16.67
2023-04-30T18:41:27.105Z,19.92
2023-04-30T18:43:53.959Z,21.48
2023-04-30T18:46:21.012Z,22.47
2023-04-30T18:48:47.971Z,23.10
2023-04-30T18:51:15.066Z,27.70
2023-04-30T18:53:45.182Z,26.08
2023-04-30T18:56:12.732Z,21.20
2023-04-30T18:58:39.659Z,24.33
2023-04-30T19:01:08.519Z,21.53
2023-04-30T19:03:35.740Z,29.58
2023-04-30T19:06:04.168Z,26.38
2023-04-30T19:08:31.173Z,22.67
2023-04-30T19:10:58.349Z,24.23
2023-04-30T19:13:36.870Z,25.07
2023-04-30T19:16:06.084Z,19.88
2023-04-30T19:18:35.227Z,27.60
2023-04-30T19:21:02.428Z,22.70
2023-04-30T19:23:30.796Z,33.67
2023-04-30T19:25:58.491Z,26.98
2023-04-30T19:28:25.522Z,23.37
2023-04-30T19:30:56.060Z,24.58
2023-04-30T19:33:23.735Z,22.53
2023-04-30T19:35:54.701Z,21.77
2023-04-30T19:38:21.941Z,24.90
2023-04-30T19:40:52.724Z,26.57
2023-04-30T19:43:22.742Z,22.80
2023-04-30T19:45:54.041Z,24.07
2023-04-30T19:48:24.284Z,23.10
2023-04-30T19:50:53.288Z,24.10
2023-04-30T19:53:21.483Z,19.87
2023-04-30T19:55:48.378Z,25.63
2023-04-30T19:58:15.384Z,27.13
2023-04-30T20:00:44.479Z,26.17
2023-04-30T20:03:11.741Z,23.33
2023-04-30T20:05:39.441Z,22.03
2023-04-30T20:08:07.187Z,19.83
2023-04-30T20:10:36.162Z,19.63
2023-04-30T20:13:03.795Z,21.00
2023-04-30T20:15:30.891Z,20.53
2023-04-30T20:17:58.438Z,25.90
2023-04-30T20:20:25.318Z,17.58
2023-04-30T20:22:53.823Z,20.70
2023-04-30T20:25:25.964Z,18.73
2023-04-30T20:27:52.901Z,19.63
2023-04-30T20:30:20.970Z,20.47
2023-04-30T20:32:48.112Z,19.20
2023-04-30T20:35:15.037Z,16.90
2023-04-30T20:37:42.169Z,17.17
2023-04-30T20:40:09.608Z,17.77
2023-04-30T20:42:36.637Z,15.37
2023-04-30T20:45:05.790Z,24.33
2023-04-30T20:47:32.898Z,17.50
2023-04-30T20:49:59.811Z,21.37
2023-04-30T20:52:26.670Z,18.47
2023-04-30T20:54:53.491Z,19.37
2023-04-30T20:57:20.559Z,18.80
2023-04-30T20:59:47.418Z,17.97
2023-04-30T21:02:15.672Z,18.63
2023-04-30T21:04:43.658Z,20.17
2023-04-30T21:07:10.517Z,18.27
2023-04-30T21:09:39.889Z,21.83
2023-04-30T21:12:06.728Z,25.13
2023-04-30T21:14:34.214Z,14.47
2023-04-30T21:17:01.397Z,18.63
2023-04-30T21:19:30.600Z,17.42
2023-04-30T21:21:57.582Z,20.20
2023-04-30T21:24:24.415Z,20.80
2023-04-30T21:26:52.395Z,19.87
2023-04-30T21:29:19.552Z,19.53
2023-04-30T21:31:46.442Z,23.30
2023-04-30T21:34:14.387Z,19.27
2023-04-30T21:36:42.236Z,18.80
2023-04-30T21:39:10.141Z,17.40
2023-04-30T21:41:39.019Z,17.27
2023-04-30T21:44:06.999Z,16.73
2023-04-30T21:46:34.131Z,13.73
2023-04-30T21:49:00.991Z,20.83
2023-04-30T21:51:29.020Z,17.10
2023-04-30T21:53:56.480Z,14.57
2023-04-30T21:56:23.335Z,14.57
2023-04-30T21:58:50.181Z,14.73
2023-04-30T22:01:18.051Z,16.10
2023-04-30T22:03:45.098Z,15.88
2023-04-30T22:06:12.111Z,16.50
2023-04-30T22:08:39.063Z,16.55
2023-04-30T22:11:06.262Z,17.60
2023-04-30T22:13:33.454Z,12.37
2023-04-30T22:16:01.481Z,13.95
2023-04-30T22:18:29.466Z,14.20
2023-04-30T22:20:56.440Z,13.50
2023-04-30T22:23:23.302Z,15.47
2023-04-30T22:25:50.625Z,12.50
2023-04-30T22:28:19.224Z,17.27
2023-04-30T22:30:46.216Z,11.57
2023-04-30T22:33:14.340Z,13.00
2023-04-30T22:35:41.263Z,14.47
2023-04-30T22:38:08.151Z,11.20
2023-04-30T22:40:35.588Z,10.48
2023-04-30T22:43:05.187Z,10.93
2023-04-30T22:45:36.937Z,12.43
2023-04-30T22:48:04.429Z,10.57
2023-04-30T22:50:31.832Z,9.30
2023-04-30T22:52:58.866Z,10.75
2023-04-30T22:55:26.951Z,10.75
2023-04-30T22:57:54.063Z,8.27
2023-04-30T23:00:21.240Z,8.60
2023-04-30T23:02:50.158Z,9.53
2023-04-30T23:05:17.363Z,8.68
2023-04-30T23:07:48.058Z,9.60
2023-04-30T23:10:15.819Z,10.18
2023-04-30T23:12:42.895Z,9.25
2023-04-30T23:15:09.992Z,11.02
2023-04-30T23:17:36.931Z,7.40
2023-04-30T23:20:04.454Z,7.57
2023-04-30T23:22:31.654Z,9.65
2023-04-30T23:24:58.512Z,9.05
2023-04-30T23:27:28.295Z,6.93
2023-04-30T23:29:56.146Z,7.68
2023-04-30T23:32:23.595Z,8.63
2023-04-30T23:34:50.553Z,7.38
2023-04-30T23:37:17.397Z,6.68
2023-04-30T23:39:44.317Z,7.57
2023-04-30T23:42:11.611Z,7.28
2023-04-30T23:44:38.644Z,8.63
2023-04-30T23:47:06.673Z,9.30
2023-04-30T23:49:33.581Z,8.40
2023-04-30T23:52:00.495Z,8.60
2023-04-30T23:54:27.665Z,8.83
2023-04-30T23:56:54.553Z,7.53
2023-04-30T23:59:24.780Z,8.23
